createdAt,value
2018-08-09T00:03:19.746Z,96920.87
2018-08-09T00:08:14.712Z,96914.77
2018-08-09T00:13:09.927Z,96924.92
2018-08-09T00:18:05.101Z,96921.63
2018-08-09T00:23:00.445Z,96909.28
2018-08-09T00:27:56.405Z,96912.55
2018-08-09T00:32:51.768Z,96914.17
2018-08-09T00:37:46.976Z,96903.62
2018-08-09T00:42:42.221Z,96904.22
2018-08-09T00:47:38.208Z,96903.67
2018-08-09T00:52:33.242Z,96904.70
2018-08-09T00:57:28.133Z,96900.51
2018-08-09T01:02:23.117Z,96888.72
2018-08-09T01:07:18.117Z,96886.41
2018-08-09T01:12:13.052Z,96900.27
2018-08-09T01:17:07.992Z,96896.98
2018-08-09T01:22:02.946Z,96895.30
2018-08-09T01:26:57.852Z,96882.38
2018-08-09T01:31:52.771Z,96875.60
2018-08-09T01:36:47.743Z,96869.72
2018-08-09T01:43:58.384Z,96869.00
2018-08-09T01:48:54.348Z,96868.27
2018-08-09T01:53:49.870Z,96854.70
2018-08-09T01:58:44.835Z,96844.85
2018-08-09T02:03:39.823Z,96845.80
2018-08-09T02:08:34.800Z,96846.02
2018-08-09T02:13:29.933Z,96846.91
2018-08-09T02:18:24.897Z,96843.25
2018-08-09T02:23:19.874Z,96839.45
2018-08-09T02:28:14.847Z,96838.66
2018-08-09T02:33:09.875Z,96837.01
2018-08-09T02:38:04.815Z,96840.81
2018-08-09T02:42:59.799Z,96850.39
2018-08-09T02:47:54.752Z,96854.08
2018-08-09T02:52:49.660Z,96859.53
2018-08-09T02:57:44.687Z,96866.92
2018-08-09T03:02:39.817Z,96859.69
2018-08-09T03:07:35.361Z,96867.20
2018-08-09T03:12:30.522Z,96871.30
2018-08-09T03:17:25.393Z,96873.73
2018-08-09T03:22:20.328Z,96885.34
2018-08-09T03:27:15.552Z,96879.00
2018-08-09T03:32:10.463Z,96876.37
2018-08-09T03:37:05.403Z,96872.60
2018-08-09T03:42:00.356Z,96865.94
2018-08-09T03:46:55.362Z,96864.10
2018-08-09T03:51:50.248Z,96863.12
2018-08-09T03:56:45.227Z,96866.13
2018-08-09T04:01:40.180Z,96870.28
2018-08-09T04:06:35.154Z,96873.19
2018-08-09T04:11:30.120Z,96878.20
2018-08-09T04:16:25.036Z,96886.41
2018-08-09T04:21:19.902Z,96891.25
2018-08-09T04:26:14.789Z,96896.66
2018-08-09T04:31:10.665Z,96904.45
2018-08-09T04:36:05.635Z,96906.17
2018-08-09T04:41:00.402Z,96901.42
2018-08-09T04:45:55.207Z,96899.70
2018-08-09T04:50:49.971Z,96905.03
2018-08-09T04:55:44.823Z,96896.08
2018-08-09T05:00:39.643Z,96899.35
2018-08-09T05:05:35.080Z,96900.33
2018-08-09T05:10:30.381Z,96899.14
2018-08-09T05:15:25.128Z,96903.33
2018-08-09T05:20:20.330Z,96900.84
2018-08-09T05:25:16.114Z,96893.97
2018-08-09T05:30:11.078Z,96895.23
2018-08-09T05:35:06.185Z,96898.16
2018-08-09T05:40:01.105Z,96896.45
2018-08-09T05:44:56.137Z,96906.58
2018-08-09T05:49:51.058Z,96902.32
2018-08-09T05:54:45.812Z,96903.56
2018-08-09T05:59:41.265Z,96898.63
2018-08-09T06:04:36.055Z,96901.92
2018-08-09T06:09:30.915Z,96910.59
2018-08-09T06:14:25.893Z,96913.84
2018-08-09T06:19:20.656Z,96912.95
2018-08-09T06:24:15.379Z,96909.06
2018-08-09T06:29:10.769Z,96906.06
2018-08-09T06:34:05.647Z,96903.95
2018-08-09T06:39:00.383Z,96900.30
2018-08-09T06:43:55.897Z,96897.40
2018-08-09T06:48:50.616Z,96903.16
2018-08-09T06:53:45.347Z,96895.67
2018-08-09T06:58:40.024Z,96891.97
2018-08-09T07:03:35.493Z,96890.20
2018-08-09T07:08:30.207Z,96879.91
2018-08-09T07:13:25.007Z,96870.45
2018-08-09T07:18:19.789Z,96860.84
2018-08-09T07:23:14.479Z,96851.56
2018-08-09T07:28:09.439Z,96844.45
2018-08-09T07:33:04.128Z,96831.72
2018-08-09T07:37:58.897Z,96841.88
2018-08-09T07:42:53.675Z,96838.02
2018-08-09T07:47:48.440Z,96840.75
2018-08-09T07:52:43.435Z,96848.06
2018-08-09T07:57:39.045Z,96837.61
2018-08-09T08:02:33.786Z,96832.32
2018-08-09T08:07:28.515Z,96839.74
2018-08-09T08:12:23.495Z,96836.34
2018-08-09T08:17:18.831Z,96827.53
2018-08-09T08:22:14.272Z,96825.72
2018-08-09T08:27:09.150Z,96821.23
2018-08-09T08:32:03.877Z,96813.42
2018-08-09T08:36:58.623Z,96815.89
2018-08-09T08:41:53.388Z,96813.25
2018-08-09T08:46:48.047Z,96814.17
2018-08-09T08:51:43.655Z,96808.47
2018-08-09T08:56:38.324Z,96810.70
2018-08-09T09:01:32.977Z,96802.49
2018-08-09T09:06:27.647Z,96802.56
2018-08-09T09:11:22.299Z,96802.24
2018-08-09T09:16:17.293Z,96791.27
2018-08-09T09:21:11.939Z,96788.04
2018-08-09T09:26:06.718Z,96796.83
2018-08-09T09:31:01.281Z,96792.16
2018-08-09T09:35:55.980Z,96770.64
2018-08-09T09:40:50.624Z,96763.72
2018-08-09T09:45:45.351Z,96761.80
2018-08-09T09:50:39.991Z,96755.78
2018-08-09T09:55:34.599Z,96744.55
2018-08-09T10:00:34.103Z,96741.05
2018-08-09T10:05:28.756Z,96735.09
2018-08-09T10:10:23.397Z,96715.28
2018-08-09T10:15:18.018Z,96718.05
2018-08-09T10:20:12.620Z,96716.55
2018-08-09T10:25:07.854Z,96709.02
2018-08-09T10:30:02.588Z,96703.84
2018-08-09T10:35:03.926Z,96697.69
2018-08-09T10:39:58.553Z,96700.50
2018-08-09T10:44:53.162Z,96702.68
2018-08-09T10:49:47.812Z,96697.34
2018-08-09T10:54:42.432Z,96682.98
2018-08-09T10:59:37.540Z,96677.80
2018-08-09T11:04:32.137Z,96680.48
2018-08-09T11:09:26.746Z,96669.06
2018-08-09T11:14:21.378Z,96666.68
2018-08-09T11:19:15.936Z,96659.02
2018-08-09T11:24:10.556Z,96663.09
2018-08-09T11:29:05.401Z,96656.78
2018-08-09T11:34:00.073Z,96660.13
2018-08-09T11:38:54.687Z,96651.02
2018-08-09T11:43:49.342Z,96643.86
2018-08-09T11:48:43.960Z,96657.89
2018-08-09T11:53:38.576Z,96662.87
2018-08-09T11:58:33.452Z,96657.72
2018-08-09T12:03:28.075Z,96653.03
2018-08-09T12:08:22.666Z,96651.88
2018-08-09T12:13:17.400Z,96648.70
2018-08-09T12:18:12.010Z,96646.02
2018-08-09T12:23:06.732Z,96634.07
2018-08-09T12:28:01.359Z,96631.45
2018-08-09T12:32:56.049Z,96628.41
2018-08-09T12:37:50.846Z,96636.33
2018-08-09T12:42:46.095Z,96633.02
2018-08-09T12:47:41.507Z,96632.41
2018-08-09T12:52:36.183Z,96635.66
2018-08-09T12:57:30.931Z,96631.34
2018-08-09T13:02:25.628Z,96627.19
2018-08-09T13:07:20.362Z,96623.85
2018-08-09T13:12:14.999Z,96622.11
2018-08-09T13:17:09.687Z,96625.00
2018-08-09T13:22:04.412Z,96630.33
2018-08-09T13:26:59.042Z,96635.27
2018-08-09T13:31:53.842Z,96629.95
2018-08-09T13:36:48.803Z,96625.76
2018-08-09T13:41:44.939Z,96628.11
2018-08-09T13:46:40.723Z,96639.53
2018-08-09T13:51:35.374Z,96656.27
2018-08-09T13:56:30.026Z,96669.19
2018-08-09T14:01:24.737Z,96672.98
2018-08-09T14:06:19.438Z,96696.88
2018-08-09T14:11:14.138Z,96713.67
2018-08-09T14:16:09.464Z,96727.34
2018-08-09T14:21:04.138Z,96743.69
2018-08-09T14:25:59.348Z,96760.73
2018-08-09T14:30:54.027Z,96739.83
2018-08-09T14:35:48.633Z,96776.92
2018-08-09T14:40:43.379Z,96791.24
2018-08-09T14:45:38.099Z,96803.74
2018-08-09T14:50:32.740Z,96813.31
2018-08-09T14:55:27.494Z,96823.89
2018-08-09T15:00:22.186Z,96836.59
2018-08-09T15:05:17.555Z,96843.20
2018-08-09T15:10:12.679Z,96843.37
2018-08-09T15:15:10.180Z,96849.28
2018-08-09T15:20:07.110Z,96861.31
2018-08-09T15:25:01.797Z,96876.78
2018-08-09T15:29:56.558Z,96887.18
2018-08-09T15:34:51.192Z,96904.81
2018-08-09T15:39:45.865Z,96925.02
2018-08-09T15:44:40.671Z,96947.69
2018-08-09T15:49:35.421Z,96950.19
2018-08-09T15:54:30.174Z,96933.28
2018-08-09T15:59:24.948Z,96943.84
2018-08-09T16:04:19.779Z,96964.83
2018-08-09T16:09:17.268Z,96999.57
2018-08-09T16:14:12.099Z,97032.82
2018-08-09T16:19:07.189Z,97061.69
2018-08-09T16:24:01.957Z,97081.75
2018-08-09T16:28:56.716Z,97086.08
2018-08-09T16:33:51.597Z,97113.90
2018-08-09T16:38:46.348Z,97127.78
2018-08-09T16:43:41.123Z,97112.48
2018-08-09T16:48:35.876Z,97126.20
2018-08-09T16:53:30.621Z,97137.59
2018-08-09T16:58:25.336Z,97138.27
2018-08-09T17:03:20.100Z,97127.56
2018-08-09T17:08:14.811Z,97121.02
2018-08-09T17:13:09.695Z,97130.20
2018-08-09T17:18:04.852Z,97151.14
2018-08-09T17:23:00.476Z,97166.30
2018-08-09T17:27:55.303Z,97156.56
2018-08-09T17:32:50.122Z,97135.73
2018-08-09T17:37:45.497Z,97127.84
2018-08-09T17:42:40.320Z,97138.13
2018-08-09T17:47:36.092Z,97135.02
2018-08-09T17:52:30.978Z,97135.24
2018-08-09T17:57:25.858Z,97141.88
2018-08-09T18:02:20.862Z,97145.11
2018-08-09T18:07:15.947Z,97149.56
2018-08-09T18:12:15.521Z,97166.00
2018-08-09T18:17:11.269Z,97175.86
2018-08-09T18:22:06.441Z,97177.23
2018-08-09T18:27:01.393Z,97167.56
2018-08-09T18:31:56.427Z,97162.54
2018-08-09T18:36:51.350Z,97188.92
2018-08-09T18:41:46.256Z,97192.40
2018-08-09T18:46:41.141Z,97192.72
2018-08-09T18:51:36.144Z,97180.60
2018-08-09T18:56:31.160Z,97187.25
2018-08-09T19:01:26.631Z,97189.81
2018-08-09T19:06:21.589Z,97196.00
2018-08-09T19:11:16.556Z,97198.05
2018-08-09T19:16:11.628Z,97194.77
2018-08-09T19:21:06.672Z,97196.65
2018-08-09T19:26:01.597Z,97194.14
2018-08-09T19:30:56.307Z,97191.00
2018-08-09T19:35:51.054Z,97191.89
2018-08-09T19:40:45.807Z,97192.64
2018-08-09T19:45:40.775Z,97207.50
2018-08-09T19:50:35.542Z,97212.41
2018-08-09T19:55:30.304Z,97227.35
2018-08-09T20:00:28.895Z,97227.33
2018-08-09T20:05:24.243Z,97229.84
2018-08-09T20:10:19.168Z,97238.62
2018-08-09T20:15:17.020Z,97244.05
2018-08-09T20:20:14.085Z,97268.44
2018-08-09T20:25:10.525Z,97266.61
2018-08-09T20:30:12.315Z,97264.04
2018-08-09T20:35:10.986Z,97266.77
2018-08-09T20:40:07.750Z,97265.75
2018-08-09T20:45:02.696Z,97268.12
2018-08-09T20:49:57.855Z,97268.99
2018-08-09T20:54:52.799Z,97265.77
2018-08-09T20:59:47.831Z,97270.72
2018-08-09T21:04:42.821Z,97272.98
2018-08-09T21:09:37.789Z,97278.34
2018-08-09T21:14:33.580Z,97290.73
2018-08-09T21:19:28.563Z,97293.72
2018-08-09T21:24:23.671Z,97293.38
2018-08-09T21:29:18.612Z,97308.58
2018-08-09T21:34:13.534Z,97315.24
2018-08-09T21:39:10.923Z,97327.27
2018-08-09T21:44:05.921Z,97331.27
2018-08-09T21:49:01.004Z,97336.91
2018-08-09T21:53:56.833Z,97339.42
2018-08-09T21:58:51.720Z,97343.47
2018-08-09T22:03:46.639Z,97357.49
2018-08-09T22:08:46.499Z,97367.61
2018-08-09T22:13:46.557Z,97369.13
2018-08-09T22:18:46.601Z,97373.48
2018-08-09T22:23:41.382Z,97376.33
2018-08-09T22:28:36.154Z,97383.32
2018-08-09T22:33:30.900Z,97385.19
2018-08-09T22:38:25.649Z,97384.50
2018-08-09T22:43:20.386Z,97396.03
2018-08-09T22:48:15.139Z,97403.00
2018-08-09T22:53:09.952Z,97405.19
2018-08-09T22:58:04.812Z,97408.67
2018-08-09T23:02:59.541Z,97423.15
2018-08-09T23:07:54.465Z,97430.66
2018-08-09T23:12:49.250Z,97433.81
2018-08-09T23:17:44.097Z,97438.41
2018-08-09T23:23:24.472Z,97434.41
2018-08-09T23:28:19.173Z,97439.09
2018-08-09T23:33:13.964Z,97431.28
2018-08-09T23:38:08.711Z,97429.45
2018-08-09T23:43:03.420Z,97435.92
2018-08-09T23:47:58.113Z,97436.45
2018-08-09T23:52:52.877Z,97441.80
2018-08-09T23:57:48.714Z,97448.06
